Time;durP1;ratioP1;P1;durP2;ratioP2;P2;SDS_P1;SDS_P2;PMS_P1;PMS_P2;Temp;Humidity;BMP_temperature;BMP_pressure;BME280_temperature;BME280_humidity;BME280_pressure;Samples;Min_cycle;Max_cycle;Signal;HPM_P1;HPM_P2
2024/01/14 00:00:00;;;;;;;18.07;8.23;;;-5.90;99.90;;;;;;2051449;28;20277;-62
2024/01/14 00:01:00;;;;;;;13.40;7.57;;;-5.90;99.90;;;;;;2053795;28;20290;-62
2024/01/14 00:02:01;;;;;;;15.33;7.53;;;-6.00;99.50;;;;;;2052437;28;20250;-61
2024/01/14 00:03:02;;;;;;;16.57;7.70;;;-5.90;99.50;;;;;;2053736;28;20183;-60
2024/01/14 00:04:02;;;;;;;18.03;7.60;;;-5.90;99.30;;;;;;2053548;28;20214;-61
2024/01/14 00:05:04;;;;;;;17.97;8.77;;;-6.00;98.70;;;;;;2054213;28;20192;-61
2024/01/14 00:06:05;;;;;;;17.25;7.40;;;-6.00;98.50;;;;;;2053324;28;20267;-61
2024/01/14 00:07:06;;;;;;;14.20;7.60;;;-5.90;98.60;;;;;;2053403;28;20569;-60
2024/01/14 00:08:06;;;;;;;14.87;7.07;;;-6.00;99.00;;;;;;2053726;28;20210;-62
2024/01/14 00:09:07;;;;;;;17.43;7.23;;;-6.00;98.40;;;;;;2044132;28;20188;-62
2024/01/14 00:10:08;;;;;;;12.10;6.83;;;-6.00;98.20;;;;;;2045166;28;20175;-63
2024/01/14 00:11:09;;;;;;;16.00;8.57;;;-6.10;97.70;;;;;;2053089;28;20726;-63
2024/01/14 00:12:10;;;;;;;18.80;8.60;;;-6.10;97.90;;;;;;2053869;28;20217;-63
2024/01/14 00:13:10;;;;;;;15.83;8.33;;;-6.10;98.10;;;;;;2052612;28;20187;-61
2024/01/14 00:14:11;;;;;;;18.23;8.70;;;-6.20;97.90;;;;;;2052126;28;20191;-63
2024/01/14 00:15:12;;;;;;;17.50;7.67;;;-6.30;97.60;;;;;;2051557;28;20191;-62
2024/01/14 00:16:13;;;;;;;17.33;8.30;;;-6.30;97.70;;;;;;2052660;28;20195;-61
2024/01/14 00:17:14;;;;;;;14.47;7.83;;;-6.20;98.00;;;;;;2053709;28;20305;-62
2024/01/14 00:18:14;;;;;;;17.20;8.20;;;-6.10;98.20;;;;;;2053070;28;20217;-62
2024/01/14 00:19:15;;;;;;;15.47;7.37;;;-6.20;97.80;;;;;;2052462;28;20198;-63
2024/01/14 00:20:16;;;;;;;18.47;7.53;;;-6.20;97.30;;;;;;2053170;28;20261;-63
2024/01/14 00:21:17;;;;;;;15.57;7.93;;;-6.20;97.60;;;;;;2051939;28;20194;-62
2024/01/14 00:22:17;;;;;;;18.00;8.20;;;-6.20;97.50;;;;;;2052304;28;20636;-62
2024/01/14 00:23:18;;;;;;;14.53;7.00;;;-6.20;97.40;;;;;;2052693;28;20214;-62
2024/01/14 00:24:19;;;;;;;16.73;7.57;;;-6.20;97.20;;;;;;2053840;28;20197;-61
2024/01/14 00:25:21;;;;;;;15.93;7.40;;;-6.10;97.30;;;;;;2054732;28;20215;-63
2024/01/14 00:26:24;;;;;;;14.13;8.02;;;-6.10;97.00;;;;;;2054954;28;20250;-61
2024/01/14 00:27:25;;;;;;;13.55;7.25;;;-6.10;97.00;;;;;;2054405;28;20234;-61
2024/01/14 00:28:26;;;;;;;11.93;6.33;;;-6.20;97.40;;;;;;2054276;28;20254;-62
2024/01/14 00:29:26;;;;;;;13.03;6.93;;;-6.20;97.10;;;;;;2053280;28;20249;-62
2024/01/14 00:30:27;;;;;;;17.90;7.20;;;-6.20;97.00;;;;;;2053187;28;20269;-62
2024/01/14 00:31:28;;;;;;;15.40;7.90;;;-6.20;97.60;;;;;;2055267;28;20229;-63
2024/01/14 00:32:29;;;;;;;17.03;8.37;;;-6.10;97.90;;;;;;2054798;28;20231;-62
2024/01/14 00:33:29;;;;;;;14.93;7.73;;;-6.30;97.60;;;;;;2050869;28;20786;-61
2024/01/14 00:34:30;;;;;;;13.70;7.30;;;-6.30;97.50;;;;;;2054656;28;20250;-62
2024/01/14 00:35:31;;;;;;;16.43;8.20;;;-6.30;97.20;;;;;;2055362;28;20265;-61
2024/01/14 00:36:31;;;;;;;17.77;7.83;;;-6.30;97.00;;;;;;2054641;28;20726;-63
2024/01/14 00:37:32;;;;;;;16.40;8.50;;;-6.30;96.80;;;;;;2053500;28;20314;-62
2024/01/14 00:38:33;;;;;;;19.40;8.47;;;-6.30;97.00;;;;;;2054609;28;20223;-61
2024/01/14 00:39:37;;;;;;;16.40;8.60;;;-6.40;97.20;;;;;;2055544;28;20246;-61
2024/01/14 00:40:38;;;;;;;15.73;7.97;;;-6.50;97.90;;;;;;2054760;28;20970;-62
2024/01/14 00:41:39;;;;;;;15.30;7.57;;;-6.40;98.80;;;;;;2055461;28;20226;-62
2024/01/14 00:42:40;;;;;;;17.57;7.57;;;-6.40;98.60;;;;;;2054853;28;20256;-61
2024/01/14 00:43:40;;;;;;;19.30;8.00;;;-6.50;99.50;;;;;;2054757;28;20238;-62
2024/01/14 00:44:42;;;;;;;15.97;8.37;;;-6.50;99.10;;;;;;2054134;28;20223;-62
2024/01/14 00:45:42;;;;;;;15.27;8.30;;;-6.40;99.00;;;;;;2053199;28;20811;-62
2024/01/14 00:46:43;;;;;;;15.50;7.93;;;-6.50;99.20;;;;;;2053936;28;20363;-62
2024/01/14 00:47:44;;;;;;;14.03;7.30;;;-6.50;99.20;;;;;;2054905;28;20238;-62
2024/01/14 00:48:45;;;;;;;13.98;7.00;;;-6.50;98.90;;;;;;2054215;28;20215;-63
2024/01/14 00:49:45;;;;;;;16.00;7.17;;;-6.50;98.50;;;;;;2055563;28;20233;-62
2024/01/14 00:50:46;;;;;;;16.77;7.67;;;-6.50;98.10;;;;;;2054448;28;20237;-61
2024/01/14 00:51:47;;;;;;;13.70;7.27;;;-6.50;97.70;;;;;;2055090;28;20238;-61
2024/01/14 00:52:47;;;;;;;14.87;7.50;;;-6.50;97.10;;;;;;2054793;28;20214;-63
2024/01/14 00:53:48;;;;;;;14.23;7.23;;;-6.70;96.50;;;;;;2054924;28;20600;-61
2024/01/14 00:54:49;;;;;;;13.90;7.03;;;-6.70;96.70;;;;;;2054781;28;20261;-62
2024/01/14 00:55:50;;;;;;;14.95;7.13;;;-6.60;97.50;;;;;;2054170;28;20226;-62
2024/01/14 00:56:51;;;;;;;16.15;7.13;;;-6.60;97.40;;;;;;2054098;28;20227;-63
2024/01/14 00:57:52;;;;;;;12.90;7.13;;;-6.70;97.10;;;;;;2054634;28;20223;-62
2024/01/14 00:58:53;;;;;;;16.97;7.80;;;-6.70;96.80;;;;;;2053617;28;20242;-60
2024/01/14 00:59:54;;;;;;;13.80;6.83;;;-6.60;96.90;;;;;;2054134;28;20227;-61
2024/01/14 01:00:54;;;;;;;14.60;6.90;;;-6.60;96.90;;;;;;2054194;28;20269;-62
2024/01/14 01:01:55;;;;;;;15.83;6.83;;;-6.60;96.60;;;;;;2055322;28;20929;-60
2024/01/14 01:02:56;;;;;;;16.93;7.30;;;-6.70;96.00;;;;;;2043629;28;20303;-62
2024/01/14 01:03:57;;;;;;;14.77;7.20;;;-6.70;96.30;;;;;;2039082;29;20232;-63
2024/01/14 01:04:58;;;;;;;15.60;7.53;;;-6.70;96.10;;;;;;2054314;28;20214;-62
2024/01/14 01:05:59;;;;;;;16.00;7.68;;;-6.70;96.10;;;;;;2055258;28;20234;-62
2024/01/14 01:07:00;;;;;;;14.77;7.37;;;-6.60;96.70;;;;;;2057190;28;20297;-62
2024/01/14 01:08:01;;;;;;;12.07;6.37;;;-6.70;96.50;;;;;;2054044;28;20326;-62
2024/01/14 01:09:02;;;;;;;13.73;6.88;;;-6.80;96.60;;;;;;2053250;28;20243;-62
2024/01/14 01:10:03;;;;;;;14.90;7.47;;;-6.70;96.90;;;;;;2055193;28;20193;-61
2024/01/14 01:11:05;;;;;;;11.80;6.53;;;-6.70;96.50;;;;;;2054417;28;20203;-63
2024/01/14 01:12:06;;;;;;;14.63;7.07;;;-6.60;96.40;;;;;;2051981;28;20297;-63
2024/01/14 01:13:07;;;;;;;12.90;6.00;;;-6.70;96.30;;;;;;2045711;28;20623;-63
2024/01/14 01:14:08;;;;;;;13.70;6.73;;;-6.60;96.70;;;;;;2054242;28;20175;-62
2024/01/14 01:15:09;;;;;;;13.63;6.67;;;-6.60;97.50;;;;;;2052044;28;20191;-64
2024/01/14 01:16:10;;;;;;;13.10;6.45;;;-6.70;97.20;;;;;;2054193;28;20183;-63
2024/01/14 01:17:10;;;;;;;10.10;5.37;;;-6.70;97.40;;;;;;2054159;28;20943;-64
2024/01/14 01:18:11;;;;;;;18.13;7.33;;;-6.80;96.90;;;;;;2054797;28;20187;-61
2024/01/14 01:19:12;;;;;;;12.40;6.13;;;-6.80;96.40;;;;;;2054299;28;20786;-63
2024/01/14 01:20:13;;;;;;;12.77;6.37;;;-6.80;96.30;;;;;;2054601;28;20563;-63
2024/01/14 01:21:20;;;;;;;14.50;6.70;;;-6.70;96.30;;;;;;2054427;28;20194;-62
2024/01/14 01:22:20;;;;;;;12.57;5.55;;;-6.70;96.50;;;;;;2053150;28;20194;-63
2024/01/14 01:23:21;;;;;;;9.30;5.13;;;-6.70;97.00;;;;;;2061560;28;20671;-62
2024/01/14 01:24:22;;;;;;;12.53;5.70;;;-6.70;97.50;;;;;;2061015;28;20248;-64
2024/01/14 01:25:22;;;;;;;9.40;5.10;;;-6.80;96.90;;;;;;2051261;28;20589;-63
2024/01/14 01:26:23;;;;;;;9.33;5.20;;;-6.90;96.80;;;;;;2045880;28;20238;-63
2024/01/14 01:27:24;;;;;;;9.70;5.17;;;-6.90;96.80;;;;;;2052932;28;20294;-63
2024/01/14 01:28:25;;;;;;;6.85;4.18;;;-6.90;96.70;;;;;;2054629;28;20317;-63
2024/01/14 01:29:26;;;;;;;10.37;4.60;;;-6.80;96.70;;;;;;2054968;28;20262;-61
2024/01/14 01:30:26;;;;;;;8.50;4.57;;;-6.80;96.70;;;;;;2050653;28;20600;-62
2024/01/14 01:31:27;;;;;;;8.97;4.10;;;-6.80;96.40;;;;;;2055047;28;20227;-63
2024/01/14 01:32:28;;;;;;;8.73;4.83;;;-6.80;96.20;;;;;;2059716;28;20262;-62
2024/01/14 01:33:28;;;;;;;9.37;4.70;;;-6.70;96.50;;;;;;2054654;28;20229;-63
2024/01/14 01:34:29;;;;;;;9.47;4.60;;;-6.70;97.00;;;;;;2054542;28;20233;-62
2024/01/14 01:35:30;;;;;;;8.20;3.93;;;-6.80;97.20;;;;;;2052528;28;20386;-62
2024/01/14 01:36:30;;;;;;;7.93;4.37;;;-6.70;96.90;;;;;;2054970;28;20257;-62
2024/01/14 01:37:31;;;;;;;9.27;5.17;;;-6.80;97.10;;;;;;2051819;28;20373;-62
2024/01/14 01:38:32;;;;;;;12.57;5.50;;;-6.80;96.80;;;;;;2054712;28;20257;-62
2024/01/14 01:39:33;;;;;;;10.93;5.47;;;-6.80;96.80;;;;;;2053377;28;20222;-62
2024/01/14 01:40:33;;;;;;;9.77;4.73;;;-6.80;96.40;;;;;;2054468;28;20313;-62
2024/01/14 01:41:34;;;;;;;9.73;5.97;;;-6.90;96.20;;;;;;2054470;28;20309;-62
2024/01/14 01:42:35;;;;;;;16.20;6.80;;;-6.90;95.70;;;;;;2054029;28;20789;-62
2024/01/14 01:43:36;;;;;;;11.65;6.65;;;-6.90;95.60;;;;;;2055334;28;20249;-61
2024/01/14 01:44:36;;;;;;;14.87;7.47;;;-7.00;95.20;;;;;;2054515;28;20230;-62
2024/01/14 01:45:37;;;;;;;14.10;7.03;;;-6.90;95.00;;;;;;2052010;28;20793;-64
2024/01/14 01:46:38;;;;;;;17.97;7.63;;;-7.00;95.00;;;;;;2053971;28;20241;-62
2024/01/14 01:47:39;;;;;;;17.33;7.47;;;-7.10;94.70;;;;;;2055471;28;20223;-63
2024/01/14 01:48:40;;;;;;;16.83;7.78;;;-7.10;94.90;;;;;;2053600;28;20266;-63
2024/01/14 01:49:41;;;;;;;16.83;7.13;;;-7.10;94.80;;;;;;2052341;28;20325;-63
2024/01/14 01:50:43;;;;;;;13.80;7.20;;;-7.00;94.60;;;;;;2053185;28;20261;-63
2024/01/14 01:51:48;;;;;;;10.95;5.88;;;-7.20;94.50;;;;;;2045124;28;20319;-61
2024/01/14 01:52:49;;;;;;;11.93;6.13;;;-7.30;94.40;;;;;;2046281;28;20324;-63
2024/01/14 01:53:50;;;;;;;13.60;6.20;;;-7.40;94.50;;;;;;2048469;28;20327;-62
2024/01/14 01:54:52;;;;;;;13.90;5.97;;;-7.30;95.40;;;;;;2053204;28;20830;-62
2024/01/14 01:55:53;;;;;;;12.65;6.25;;;-7.50;95.20;;;;;;2054059;28;20229;-63
2024/01/14 01:56:56;;;;;;;13.02;6.60;;;-7.40;95.30;;;;;;2053371;28;20311;-63
2024/01/14 01:57:56;;;;;;;13.15;6.05;;;-7.50;95.20;;;;;;2047516;28;20227;-63
2024/01/14 01:58:57;;;;;;;12.13;6.57;;;-7.50;95.70;;;;;;2045606;28;20658;-64
2024/01/14 01:59:58;;;;;;;13.02;5.45;;;-7.50;95.50;;;;;;2044665;28;20223;-63
2024/01/14 02:00:59;;;;;;;14.50;6.30;;;-7.30;95.40;;;;;;2052749;28;20320;-64
2024/01/14 02:02:00;;;;;;;13.50;6.40;;;-7.50;94.60;;;;;;2052450;28;20229;-63
2024/01/14 02:03:02;;;;;;;15.73;6.80;;;-7.70;94.30;;;;;;2044381;28;20246;-63
2024/01/14 02:04:04;;;;;;;14.27;6.85;;;-7.60;95.20;;;;;;2044620;28;20329;-63
2024/01/14 02:05:06;;;;;;;14.35;6.30;;;-7.60;95.50;;;;;;2051390;28;20258;-64
2024/01/14 02:06:09;;;;;;;10.02;4.85;;;-7.60;96.60;;;;;;2046019;28;20243;-63
2024/01/14 02:07:10;;;;;;;11.45;5.50;;;-7.50;97.40;;;;;;2053274;28;20253;-62
2024/01/14 02:08:12;;;;;;;13.47;5.37;;;-7.50;97.40;;;;;;2045272;28;20211;-63
2024/01/14 02:09:12;;;;;;;11.02;5.35;;;-7.50;97.60;;;;;;2054037;28;20511;-63
2024/01/14 02:10:14;;;;;;;9.37;4.83;;;-7.50;97.00;;;;;;2052851;28;20183;-62
2024/01/14 02:11:14;;;;;;;11.23;5.32;;;-7.50;96.70;;;;;;2051878;28;20186;-63
2024/01/14 02:12:15;;;;;;;10.50;4.90;;;-7.50;96.10;;;;;;2044565;28;20267;-63
2024/01/14 02:13:16;;;;;;;11.83;4.63;;;-7.30;96.20;;;;;;2052106;28;20593;-62
2024/01/14 02:14:16;;;;;;;6.67;3.53;;;-7.40;96.20;;;;;;2052426;28;20257;-62
2024/01/14 02:15:17;;;;;;;7.83;3.80;;;-7.50;95.60;;;;;;2052725;28;20530;-63
2024/01/14 02:16:20;;;;;;;9.53;5.20;;;-7.40;96.30;;;;;;2052590;28;20191;-63
2024/01/14 02:17:21;;;;;;;9.10;4.47;;;-7.50;96.20;;;;;;2052834;28;20282;-63
2024/01/14 02:18:21;;;;;;;10.77;4.45;;;-7.50;96.10;;;;;;2052386;28;20712;-64
2024/01/14 02:19:22;;;;;;;10.07;4.50;;;-7.40;96.60;;;;;;2050369;28;20237;-61
2024/01/14 02:20:23;;;;;;;10.57;5.00;;;-7.50;96.20;;;;;;2052544;28;20234;-63
2024/01/14 02:21:42;;;;;;;13.60;5.57;;;-7.40;96.10;;;;;;2052736;28;20279;-63
2024/01/14 02:22:45;;;;;;;11.75;5.50;;;-7.40;95.80;;;;;;2045991;28;20215;-63
2024/01/14 02:23:53;;;;;;;11.18;5.57;;;-7.40;95.50;;;;;;2045580;28;20224;-63
2024/01/14 02:24:54;;;;;;;11.27;4.85;;;-7.40;95.00;;;;;;2053224;28;20230;-63
2024/01/14 02:25:54;;;;;;;12.33;6.00;;;-7.40;95.00;;;;;;2053382;28;20573;-62
2024/01/14 02:26:56;;;;;;;10.90;5.43;;;-7.40;95.00;;;;;;2049949;28;20246;-63
2024/01/14 02:27:56;;;;;;;12.52;5.25;;;-7.40;94.60;;;;;;2042839;28;20676;-63
2024/01/14 02:29:01;;;;;;;11.37;5.70;;;-7.50;94.40;;;;;;2045832;28;20223;-64
2024/01/14 02:30:03;;;;;;;15.88;6.25;;;-7.40;94.50;;;;;;2047971;28;20474;-62
2024/01/14 02:31:04;;;;;;;11.43;4.80;;;-7.40;95.10;;;;;;2057601;28;20273;-63
2024/01/14 02:32:05;;;;;;;9.88;5.18;;;-7.30;96.10;;;;;;2044648;28;20200;-63
2024/01/14 02:33:06;;;;;;;11.67;5.40;;;-7.50;95.70;;;;;;2042836;28;20931;-64
2024/01/14 02:34:07;;;;;;;12.10;5.75;;;-7.60;95.30;;;;;;2050051;28;20191;-63
2024/01/14 02:35:08;;;;;;;15.03;6.50;;;-7.60;95.40;;;;;;2054590;28;20186;-64
2024/01/14 02:36:08;;;;;;;15.88;6.38;;;-7.60;95.40;;;;;;2052233;28;20183;-63
2024/01/14 02:37:09;;;;;;;13.37;6.70;;;-7.50;95.90;;;;;;2052625;28;20252;-63
2024/01/14 02:38:10;;;;;;;11.47;6.63;;;-7.40;96.00;;;;;;2053259;28;20269;-64
2024/01/14 02:39:11;;;;;;;16.63;6.33;;;-7.50;95.30;;;;;;2052207;28;20191;-63
2024/01/14 02:40:12;;;;;;;14.53;6.33;;;-7.50;95.30;;;;;;2053625;28;20183;-63
2024/01/14 02:41:12;;;;;;;11.00;6.13;;;-7.60;95.20;;;;;;2052455;28;20639;-63
2024/01/14 02:42:13;;;;;;;13.20;6.13;;;-7.50;96.30;;;;;;2053229;28;20221;-63
2024/01/14 02:43:14;;;;;;;14.63;6.20;;;-7.70;96.30;;;;;;2052691;28;20259;-64
2024/01/14 02:44:15;;;;;;;10.90;6.10;;;-7.70;96.90;;;;;;2052723;28;20190;-63
2024/01/14 02:45:16;;;;;;;13.20;6.35;;;-7.70;97.40;;;;;;2044901;28;20191;-64
2024/01/14 02:46:16;;;;;;;15.35;6.88;;;-7.70;97.00;;;;;;2046169;28;20338;-63
2024/01/14 02:47:17;;;;;;;13.67;6.90;;;-7.60;96.90;;;;;;2052140;28;20274;-64
2024/01/14 02:48:18;;;;;;;14.93;6.77;;;-7.60;96.90;;;;;;2053929;28;20186;-65
2024/01/14 02:49:18;;;;;;;14.97;6.80;;;-7.60;96.40;;;;;;2051755;28;20219;-63
2024/01/14 02:50:19;;;;;;;11.87;6.10;;;-7.70;96.50;;;;;;2054008;28;20543;-64
2024/01/14 02:51:20;;;;;;;11.60;5.77;;;-7.60;95.60;;;;;;2053430;28;20239;-64
2024/01/14 02:52:20;;;;;;;10.27;5.73;;;-7.60;95.20;;;;;;2052396;28;20222;-64
2024/01/14 02:53:21;;;;;;;13.53;6.00;;;-7.70;94.80;;;;;;2052804;28;20235;-63
2024/01/14 02:54:22;;;;;;;12.90;5.83;;;-7.70;95.10;;;;;;2051804;28;20234;-63
2024/01/14 02:55:22;;;;;;;14.03;7.20;;;-7.80;95.10;;;;;;2053026;28;20232;-64
2024/01/14 02:56:23;;;;;;;13.63;6.17;;;-7.80;95.10;;;;;;2054184;28;20697;-63
2024/01/14 02:57:24;;;;;;;15.07;7.07;;;-7.70;95.10;;;;;;2056745;28;20232;-64
2024/01/14 02:58:25;;;;;;;15.63;7.17;;;-7.70;95.20;;;;;;2053507;28;20658;-63
2024/01/14 02:59:25;;;;;;;15.27;6.80;;;-7.70;95.20;;;;;;2053473;28;21055;-64
2024/01/14 03:00:26;;;;;;;17.10;7.50;;;-7.70;95.30;;;;;;2053261;28;20656;-64
2024/01/14 03:01:27;;;;;;;18.40;8.10;;;-7.70;95.20;;;;;;2053139;28;20691;-64
2024/01/14 03:02:28;;;;;;;16.23;7.18;;;-7.70;95.20;;;;;;2054075;28;20245;-63
2024/01/14 03:03:29;;;;;;;17.57;7.63;;;-7.70;95.70;;;;;;2052867;28;20260;-64
2024/01/14 03:04:29;;;;;;;14.82;6.70;;;-7.70;96.00;;;;;;2049422;28;20224;-63
2024/01/14 03:05:30;;;;;;;17.37;7.73;;;-7.80;96.00;;;;;;2050940;28;20362;-64
2024/01/14 03:06:31;;;;;;;14.40;6.57;;;-7.90;95.60;;;;;;2054099;28;20297;-64
2024/01/14 03:07:31;;;;;;;13.03;6.00;;;-7.90;95.10;;;;;;2053067;28;20230;-64
2024/01/14 03:08:32;;;;;;;11.57;5.83;;;-8.00;94.80;;;;;;2054325;28;20262;-64
2024/01/14 03:09:33;;;;;;;13.03;5.70;;;-7.90;95.40;;;;;;2053742;28;20240;-64
2024/01/14 03:10:33;;;;;;;9.80;6.33;;;-8.10;95.30;;;;;;2057085;28;20285;-63
2024/01/14 03:11:35;;;;;;;13.70;6.50;;;-8.10;95.20;;;;;;2057951;28;20218;-64
2024/01/14 03:12:36;;;;;;;11.30;6.47;;;-8.10;95.50;;;;;;2052975;28;21130;-64
2024/01/14 03:13:36;;;;;;;13.07;6.67;;;-8.10;95.70;;;;;;2052137;28;20281;-64
2024/01/14 03:14:37;;;;;;;17.03;6.80;;;-8.10;95.90;;;;;;2053231;28;20229;-63
2024/01/14 03:15:37;;;;;;;12.07;5.93;;;-8.10;96.20;;;;;;2052478;28;20666;-63
2024/01/14 03:16:38;;;;;;;14.00;6.13;;;-8.00;96.20;;;;;;2051823;28;20346;-64
2024/01/14 03:17:39;;;;;;;13.77;6.00;;;-7.90;96.40;;;;;;2049547;28;20770;-64
2024/01/14 03:18:39;;;;;;;14.03;6.73;;;-7.80;96.20;;;;;;2051280;28;20253;-64
2024/01/14 03:19:40;;;;;;;13.03;5.80;;;-7.90;95.20;;;;;;2052898;28;20250;-64
2024/01/14 03:20:42;;;;;;;14.03;5.93;;;-7.90;95.10;;;;;;2053039;28;20305;-64
2024/01/14 03:21:43;;;;;;;12.85;5.40;;;-7.80;94.80;;;;;;2053600;28;20226;-63
2024/01/14 03:22:43;;;;;;;13.70;6.27;;;-7.90;94.20;;;;;;2052373;28;20225;-64
2024/01/14 03:23:45;;;;;;;13.30;6.27;;;-8.00;94.10;;;;;;2053162;28;20253;-64
2024/01/14 03:24:46;;;;;;;10.57;5.57;;;-8.00;94.80;;;;;;2052028;28;20477;-64
2024/01/14 03:25:46;;;;;;;14.53;6.17;;;-8.00;94.90;;;;;;2049654;28;20721;-63
2024/01/14 03:26:47;;;;;;;12.23;6.03;;;-8.20;94.90;;;;;;2051617;28;20782;-63
2024/01/14 03:27:48;;;;;;;13.10;6.67;;;-8.20;94.90;;;;;;2050463;28;20223;-63
2024/01/14 03:28:48;;;;;;;11.47;5.80;;;-8.10;94.90;;;;;;2051484;28;20629;-64
2024/01/14 03:29:49;;;;;;;12.00;6.37;;;-8.10;94.80;;;;;;2053049;28;20270;-63
2024/01/14 03:30:50;;;;;;;14.43;6.60;;;-8.00;95.40;;;;;;2051512;28;20464;-63
2024/01/14 03:31:51;;;;;;;14.40;6.40;;;-8.10;94.90;;;;;;2053480;28;20261;-64
2024/01/14 03:32:52;;;;;;;15.10;6.80;;;-8.10;94.90;;;;;;2051320;28;20223;-63
2024/01/14 03:33:52;;;;;;;11.90;5.97;;;-8.20;94.80;;;;;;2053531;28;20221;-63
2024/01/14 03:34:53;;;;;;;13.00;6.00;;;-8.10;95.50;;;;;;2052285;28;20241;-64
2024/01/14 03:35:54;;;;;;;13.40;5.57;;;-8.00;96.10;;;;;;2049548;28;20250;-64
2024/01/14 03:36:55;;;;;;;9.13;5.22;;;-8.00;96.00;;;;;;2049970;28;20714;-64
2024/01/14 03:37:55;;;;;;;12.77;6.03;;;-8.10;95.60;;;;;;2056674;28;20261;-64
2024/01/14 03:38:56;;;;;;;12.40;6.20;;;-8.00;95.80;;;;;;2051727;28;20591;-64
2024/01/14 03:39:57;;;;;;;12.37;6.17;;;-8.10;95.50;;;;;;2052514;28;20222;-64
2024/01/14 03:40:58;;;;;;;10.48;5.15;;;-8.10;95.20;;;;;;2053683;28;20651;-64
2024/01/14 03:41:59;;;;;;;12.63;5.27;;;-8.00;95.00;;;;;;2052564;28;20226;-64
2024/01/14 03:42:59;;;;;;;10.43;4.87;;;-8.10;94.70;;;;;;2053810;28;20707;-62
2024/01/14 03:44:00;;;;;;;8.30;5.03;;;-8.10;94.60;;;;;;2051414;28;20229;-63
2024/01/14 03:45:01;;;;;;;9.43;4.97;;;-8.10;95.00;;;;;;2043987;28;20808;-62
2024/01/14 03:46:02;;;;;;;10.03;4.27;;;-8.10;95.20;;;;;;2052983;28;20268;-62
2024/01/14 03:47:02;;;;;;;8.85;4.15;;;-8.00;95.80;;;;;;2053731;28;20186;-64
2024/01/14 03:48:04;;;;;;;11.07;4.77;;;-8.10;95.30;;;;;;2051500;28;20741;-63
2024/01/14 03:49:04;;;;;;;11.00;4.43;;;-8.00;96.20;;;;;;2052201;28;20179;-64
2024/01/14 03:50:05;;;;;;;7.50;4.37;;;-8.10;95.90;;;;;;2053944;28;20557;-62
2024/01/14 03:51:06;;;;;;;7.33;4.23;;;-8.20;96.00;;;;;;2051852;28;20186;-63
2024/01/14 03:52:07;;;;;;;8.60;4.40;;;-8.00;96.60;;;;;;2053276;28;20183;-64
2024/01/14 03:53:07;;;;;;;8.17;3.83;;;-8.00;96.40;;;;;;2048324;28;20611;-63
2024/01/14 03:54:08;;;;;;;7.43;4.13;;;-7.90;96.30;;;;;;2052808;28;20187;-64
2024/01/14 03:55:09;;;;;;;7.73;4.13;;;-7.80;96.50;;;;;;2052426;28;20175;-64
2024/01/14 03:56:09;;;;;;;6.37;3.40;;;-7.80;96.70;;;;;;2052298;28;20648;-64
2024/01/14 03:57:10;;;;;;;7.40;3.57;;;-7.70;97.30;;;;;;2052227;28;20286;-64
2024/01/14 03:58:11;;;;;;;5.40;3.10;;;-7.70;97.70;;;;;;2052937;28;20673;-64
2024/01/14 03:59:11;;;;;;;6.73;4.00;;;-7.70;97.60;;;;;;2053016;28;20347;-64
2024/01/14 04:00:13;;;;;;;7.37;3.63;;;-7.70;98.10;;;;;;2052785;28;20228;-64
2024/01/14 04:01:17;;;;;;;5.80;3.78;;;-7.70;98.50;;;;;;2052627;28;20553;-64
2024/01/14 04:02:18;;;;;;;5.70;3.00;;;-7.70;98.60;;;;;;2051654;28;20639;-64
2024/01/14 04:03:18;;;;;;;7.37;3.50;;;-7.70;98.50;;;;;;2051093;28;20186;-63
2024/01/14 04:04:19;;;;;;;5.73;2.87;;;-7.70;99.10;;;;;;2053443;28;20796;-64
2024/01/14 04:05:20;;;;;;;4.97;2.90;;;-7.60;98.60;;;;;;2052621;28;20202;-63
2024/01/14 04:06:22;;;;;;;7.10;3.03;;;-7.60;98.40;;;;;;2052627;28;20243;-64
2024/01/14 04:07:23;;;;;;;5.47;3.15;;;-7.70;98.20;;;;;;2052350;28;20243;-64
2024/01/14 04:08:23;;;;;;;4.83;2.97;;;-7.60;97.90;;;;;;2053626;28;20236;-64
2024/01/14 04:09:24;;;;;;;4.47;2.60;;;-7.60;97.70;;;;;;2052181;28;20249;-63
2024/01/14 04:10:25;;;;;;;5.37;3.17;;;-7.50;97.00;;;;;;2052481;28;20235;-62
2024/01/14 04:11:25;;;;;;;4.67;2.93;;;-7.50;97.00;;;;;;2051416;28;20324;-63
2024/01/14 04:12:27;;;;;;;8.57;3.77;;;-7.60;96.50;;;;;;2045155;28;20318;-63
2024/01/14 04:13:28;;;;;;;9.45;2.80;;;-7.50;96.40;;;;;;2051311;28;20230;-63
2024/01/14 04:14:29;;;;;;;4.63;3.10;;;-7.40;96.70;;;;;;2049793;28;20705;-64
2024/01/14 04:15:29;;;;;;;4.93;2.70;;;-7.50;97.10;;;;;;2055069;28;20227;-63
2024/01/14 04:16:40;;;;;;;4.20;2.90;;;-7.50;96.60;;;;;;2052557;28;20244;-62
2024/01/14 04:17:41;;;;;;;5.47;3.45;;;-7.40;97.00;;;;;;2049354;28;20250;-64
2024/01/14 04:18:41;;;;;;;6.10;2.53;;;-7.40;96.90;;;;;;2051967;28;20243;-64
2024/01/14 04:19:42;;;;;;;4.70;2.47;;;-7.50;96.40;;;;;;2053157;28;20222;-63
2024/01/14 04:20:43;;;;;;;5.40;2.50;;;-7.50;97.10;;;;;;2050567;28;20259;-63
2024/01/14 04:21:43;;;;;;;5.40;2.37;;;-7.60;97.10;;;;;;2051698;28;20217;-64
2024/01/14 04:22:44;;;;;;;4.93;2.70;;;-7.60;97.00;;;;;;2052164;28;20298;-63
2024/01/14 04:23:45;;;;;;;5.50;2.60;;;-7.50;97.10;;;;;;2052740;28;20357;-64
2024/01/14 04:24:46;;;;;;;4.57;2.53;;;-7.40;97.50;;;;;;2052852;28;20751;-64
2024/01/14 04:25:46;;;;;;;4.30;2.40;;;-7.40;97.70;;;;;;2052470;28;20227;-62
2024/01/14 04:26:47;;;;;;;5.47;2.50;;;-7.50;97.20;;;;;;2050699;28;20300;-64
2024/01/14 04:27:48;;;;;;;3.70;2.00;;;-7.40;97.70;;;;;;2052981;28;20242;-64
2024/01/14 04:28:50;;;;;;;3.87;2.13;;;-7.30;97.60;;;;;;2052191;28;20302;-63
2024/01/14 04:29:51;;;;;;;4.18;2.20;;;-7.40;97.40;;;;;;2051394;28;20223;-64
2024/01/14 04:30:53;;;;;;;3.90;2.33;;;-7.40;97.00;;;;;;2052954;28;20246;-63
2024/01/14 04:31:54;;;;;;;2.58;1.80;;;-7.30;97.70;;;;;;2052750;28;20223;-64
2024/01/14 04:32:54;;;;;;;3.73;2.10;;;-7.30;97.90;;;;;;2051331;28;20654;-63
2024/01/14 04:33:56;;;;;;;3.23;1.60;;;-7.20;98.20;;;;;;2052183;28;20219;-64
2024/01/14 04:34:57;;;;;;;2.60;1.92;;;-7.20;97.90;;;;;;2051796;28;20230;-64
2024/01/14 04:35:57;;;;;;;2.67;1.73;;;-7.20;97.40;;;;;;2051582;28;20226;-63
2024/01/14 04:36:58;;;;;;;2.77;1.50;;;-7.10;97.80;;;;;;2052555;28;20215;-62
2024/01/14 04:37:59;;;;;;;3.57;1.73;;;-7.20;97.40;;;;;;2052042;28;20222;-64
2024/01/14 04:39:00;;;;;;;3.42;1.73;;;-7.10;97.80;;;;;;2051250;28;20300;-63
2024/01/14 04:40:01;;;;;;;2.97;1.83;;;-7.00;98.20;;;;;;2051028;28;20319;-63
2024/01/14 04:41:02;;;;;;;3.57;2.10;;;-7.20;97.50;;;;;;2052946;28;20201;-61
2024/01/14 04:42:03;;;;;;;3.88;2.03;;;-7.20;97.80;;;;;;2050706;28;20206;-62
2024/01/14 04:43:05;;;;;;;3.33;1.70;;;-7.20;97.90;;;;;;2051219;28;20297;-63
2024/01/14 04:44:06;;;;;;;2.95;1.80;;;-7.10;99.00;;;;;;2053905;28;20203;-62
2024/01/14 04:45:07;;;;;;;3.50;1.88;;;-7.20;98.10;;;;;;2052301;28;20656;-63
2024/01/14 04:46:11;;;;;;;2.90;1.63;;;-7.10;98.00;;;;;;2049809;28;20213;-62
2024/01/14 04:47:12;;;;;;;3.78;1.60;;;-7.10;97.70;;;;;;2052077;28;20222;-62
2024/01/14 04:48:12;;;;;;;2.70;1.70;;;-7.00;97.90;;;;;;2051110;28;20186;-63
2024/01/14 04:49:13;;;;;;;2.90;1.60;;;-6.90;99.00;;;;;;2051798;28;20214;-63
2024/01/14 04:50:14;;;;;;;2.13;1.40;;;-7.10;98.40;;;;;;2052353;28;20593;-63
2024/01/14 04:51:17;;;;;;;2.17;1.50;;;-7.10;98.40;;;;;;2052272;28;20194;-63
2024/01/14 04:52:17;;;;;;;2.20;1.33;;;-7.00;98.80;;;;;;2050770;28;20179;-64
2024/01/14 04:53:18;;;;;;;1.53;1.20;;;-7.10;98.40;;;;;;2051919;28;20188;-64
2024/01/14 04:54:19;;;;;;;2.17;1.37;;;-7.10;98.40;;;;;;2050759;28;20239;-63
2024/01/14 04:55:19;;;;;;;3.07;1.70;;;-7.00;99.20;;;;;;2052029;28;20198;-63
2024/01/14 04:56:20;;;;;;;3.10;1.70;;;-7.00;98.90;;;;;;2052837;28;20202;-64
2024/01/14 04:57:21;;;;;;;2.33;1.10;;;-7.00;98.40;;;;;;2051511;28;20236;-63
2024/01/14 04:58:21;;;;;;;1.53;1.10;;;-6.90;98.80;;;;;;2051628;28;20771;-64
2024/01/14 04:59:22;;;;;;;1.97;1.20;;;-6.90;99.50;;;;;;2052538;28;20234;-63
2024/01/14 05:00:23;;;;;;;2.60;1.27;;;-7.00;98.70;;;;;;2052347;28;20278;-63
2024/01/14 05:01:23;;;;;;;2.47;1.20;;;-7.10;98.50;;;;;;2051716;28;20880;-63
2024/01/14 05:02:24;;;;;;;1.67;1.13;;;-7.10;98.70;;;;;;2052481;28;20247;-63
2024/01/14 05:03:25;;;;;;;1.67;1.20;;;-7.00;99.00;;;;;;2051756;28;20235;-64
2024/01/14 05:04:25;;;;;;;1.10;0.80;;;-6.90;99.60;;;;;;2052267;28;20885;-64
2024/01/14 05:05:26;;;;;;;1.10;1.00;;;-6.80;99.90;;;;;;2052380;28;20242;-63
2024/01/14 05:06:27;;;;;;;0.90;0.60;;;-6.70;99.90;;;;;;2050684;28;20852;-62
2024/01/14 05:07:27;;;;;;;2.70;1.07;;;-6.70;99.90;;;;;;2049077;28;20840;-63
2024/01/14 05:08:28;;;;;;;1.77;1.00;;;-6.60;99.90;;;;;;2052804;28;20272;-63
2024/01/14 05:09:29;;;;;;;1.20;0.90;;;-6.50;99.90;;;;;;2051014;28;20314;-63
2024/01/14 05:10:29;;;;;;;1.00;0.90;;;-6.60;99.70;;;;;;2049298;28;20647;-63
2024/01/14 05:11:30;;;;;;;2.10;1.13;;;-6.50;99.90;;;;;;2052362;28;20219;-63
2024/01/14 05:12:31;;;;;;;1.17;0.70;;;-6.40;99.40;;;;;;2051661;28;20315;-63
2024/01/14 05:13:31;;;;;;;1.30;0.90;;;-6.50;99.30;;;;;;2054479;28;20435;-63
2024/01/14 05:14:32;;;;;;;1.00;0.80;;;-6.50;99.00;;;;;;2052728;28;20306;-63